Time;durP1;ratioP1;P1;durP2;ratioP2;P2;SDS_P1;SDS_P2;PMS_P1;PMS_P2;Temp;Humidity;BMP_temperature;BMP_pressure;BME280_temperature;BME280_humidity;BME280_pressure;Samples;Min_cycle;Max_cycle;Signal;HPM_P1;HPM_P2
2020/12/12 00:02:10;;;;;;;21.50;15.37;;;;;;;4.40;100.00;98137.88;646143;222;24864;-74
2020/12/12 00:04:38;;;;;;;20.00;14.70;;;;;;;4.53;100.00;98136.63;646112;221;24809;-75
2020/12/12 00:07:06;;;;;;;20.87;15.07;;;;;;;4.72;100.00;98122.16;641061;224;24880;-74
2020/12/12 00:09:34;;;;;;;21.53;14.50;;;;;;;4.65;100.00;98118.63;636868;225;24826;-74
2020/12/12 00:12:02;;;;;;;23.32;17.98;;;;;;;4.86;100.00;98115.09;631169;225;32764;-74
2020/12/12 00:14:30;;;;;;;21.37;15.50;;;;;;;4.75;100.00;98113.63;636888;224;23659;-74
2020/12/12 00:16:58;;;;;;;19.17;14.50;;;;;;;4.82;100.00;98113.00;648446;221;26958;-74
2020/12/12 00:19:26;;;;;;;24.45;16.73;;;;;;;5.00;100.00;98116.21;630625;221;33188;-74
2020/12/12 00:21:54;;;;;;;21.30;16.93;;;;;;;4.90;100.00;98113.79;636081;225;23748;-74
2020/12/12 00:24:22;;;;;;;18.20;14.27;;;;;;;4.82;100.00;98111.72;636132;226;24837;-74
2020/12/12 00:26:49;;;;;;;23.53;13.40;;;;;;;4.82;100.00;98106.56;643268;221;27988;-72
2020/12/12 00:29:17;;;;;;;17.37;13.70;;;;;;;4.69;100.00;98107.84;642077;221;24816;-73
2020/12/12 00:31:45;;;;;;;19.80;13.50;;;;;;;4.85;100.00;98106.23;648038;222;25087;-72
2020/12/12 00:34:13;;;;;;;16.80;12.53;;;;;;;4.90;100.00;98109.92;643617;221;24801;-75
2020/12/12 00:36:41;;;;;;;20.07;13.67;;;;;;;4.81;100.00;98112.69;643738;221;24834;-75
2020/12/12 00:39:09;;;;;;;18.20;13.37;;;;;;;4.97;100.00;98116.05;642511;221;27060;-74
2020/12/12 00:41:37;;;;;;;17.00;13.90;;;;;;;4.94;100.00;98114.30;646778;221;24823;-73
2020/12/12 00:44:05;;;;;;;19.87;13.53;;;;;;;4.89;100.00;98112.66;641470;220;24959;-72
2020/12/12 00:46:33;;;;;;;17.40;12.13;;;;;;;4.74;100.00;98121.03;622083;226;24870;-74
2020/12/12 00:49:01;;;;;;;19.50;13.20;;;;;;;4.86;100.00;98120.23;636891;226;24869;-74
2020/12/12 00:51:29;;;;;;;17.30;13.20;;;;;;;4.73;100.00;98119.91;636289;225;24844;-74
2020/12/12 00:53:57;;;;;;;16.97;12.70;;;;;;;4.81;100.00;98124.27;649034;221;24837;-73
2020/12/12 00:56:25;;;;;;;16.87;12.10;;;;;;;4.85;100.00;98126.84;636342;225;26994;-74
2020/12/12 00:58:53;;;;;;;17.80;11.97;;;;;;;4.85;100.00;98122.49;637103;224;24817;-74
2020/12/12 01:01:21;;;;;;;17.83;13.53;;;;;;;4.97;100.00;98122.50;648363;218;24783;-73
2020/12/12 01:03:49;;;;;;;15.93;11.70;;;;;;;4.86;100.00;98120.23;632271;225;24856;-74
2020/12/12 01:06:17;;;;;;;17.30;11.40;;;;;;;4.91;100.00;98119.74;637501;224;24824;-74
2020/12/12 01:08:44;;;;;;;14.67;11.83;;;;;;;4.88;100.00;98122.16;638015;224;26993;-74
2020/12/12 01:11:12;;;;;;;16.60;11.90;;;;;;;4.90;100.00;98114.27;636710;224;24813;-73
2020/12/12 01:13:40;;;;;;;15.17;11.67;;;;;;;4.96;100.00;98114.45;636389;225;24900;-74
2020/12/12 01:16:09;;;;;;;15.77;11.40;;;;;;;4.97;100.00;98122.98;637245;224;24806;-74
2020/12/12 01:18:37;;;;;;;17.03;12.23;;;;;;;4.99;100.00;98123.14;648772;217;24776;-74
2020/12/12 01:21:05;;;;;;;15.40;12.00;;;;;;;4.92;100.00;98132.45;637271;225;24822;-74
2020/12/12 01:23:32;;;;;;;15.73;12.50;;;;;;;4.96;100.00;98124.75;638087;224;24821;-74
2020/12/12 01:26:00;;;;;;;13.77;10.97;;;;;;;4.99;100.00;98131.34;636481;223;24821;-74
2020/12/12 01:28:28;;;;;;;15.20;11.50;;;;;;;5.09;100.00;98128.62;637993;223;24841;-74
2020/12/12 01:30:56;;;;;;;14.20;11.87;;;;;;;5.23;100.00;98134.41;648365;221;24795;-76
2020/12/12 01:33:24;;;;;;;14.00;11.50;;;;;;;5.08;100.00;98132.16;636244;224;24811;-76
2020/12/12 01:35:52;;;;;;;14.50;11.43;;;;;;;5.07;100.00;98132.65;635931;225;24836;-73
2020/12/12 01:38:20;;;;;;;13.83;10.80;;;;;;;5.15;100.00;98127.47;637698;220;24858;-74
2020/12/12 01:40:48;;;;;;;15.27;11.77;;;;;;;5.08;100.00;98136.83;644470;221;24831;-74
2020/12/12 01:43:16;;;;;;;16.30;11.40;;;;;;;5.12;100.00;98131.67;648731;221;25108;-73
2020/12/12 01:45:43;;;;;;;14.03;10.70;;;;;;;5.13;100.00;98141.00;641067;222;25129;-73
2020/12/12 01:48:11;;;;;;;16.30;13.00;;;;;;;5.65;100.00;98132.39;641700;221;32801;-74
2020/12/12 01:50:39;;;;;;;17.40;13.13;;;;;;;5.38;100.00;98129.39;648743;220;24823;-73
2020/12/12 01:53:07;;;;;;;14.30;11.70;;;;;;;5.15;100.00;98136.48;644951;220;25088;-74
2020/12/12 01:55:35;;;;;;;17.25;14.20;;;;;;;5.79;100.00;98130.10;644068;220;43869;-74
2020/12/12 01:58:04;;;;;;;16.32;13.78;;;;;;;5.94;100.00;98134.43;637875;220;32745;-76
2020/12/12 02:00:32;;;;;;;14.53;12.20;;;;;;;5.53;100.00;98131.62;647141;221;23763;-75
2020/12/12 02:03:00;;;;;;;14.10;11.23;;;;;;;5.43;100.00;98133.56;641792;220;25926;-76
2020/12/12 02:08:01;;;;;;;14.90;11.63;;;;;;;5.27;100.00;98145.50;638492;221;24851;-76
2020/12/12 02:10:30;;;;;;;13.30;10.77;;;;;;;5.22;100.00;98141.33;644129;222;24838;-76
2020/12/12 02:12:58;;;;;;;13.73;10.40;;;;;;;5.20;100.00;98147.59;644882;221;24837;-76
2020/12/12 02:15:26;;;;;;;12.90;10.50;;;;;;;5.15;100.00;98144.70;647238;221;24817;-76
2020/12/12 02:17:53;;;;;;;13.17;10.97;;;;;;;5.07;100.00;98141.66;647464;221;24830;-75
2020/12/12 02:20:21;;;;;;;14.83;10.60;;;;;;;5.00;100.00;98139.39;637512;224;27991;-76
2020/12/12 02:22:49;;;;;;;13.17;10.80;;;;;;;5.09;100.00;98141.50;637630;222;24805;-76
2020/12/12 02:25:17;;;;;;;12.17;10.57;;;;;;;4.96;100.00;98136.83;632241;226;28022;-74
2020/12/12 02:27:45;;;;;;;18.83;14.60;;;;;;;5.52;100.00;98132.59;629747;224;32739;-76
2020/12/12 02:30:13;;;;;;;16.85;14.60;;;;;;;5.71;100.00;98127.53;643246;222;33263;-76
2020/12/12 02:32:41;;;;;;;17.00;13.80;;;;;;;5.59;100.00;98124.50;630688;225;32823;-74
2020/12/12 02:35:09;;;;;;;15.90;12.93;;;;;;;5.18;100.00;98128.43;635477;226;23729;-75
2020/12/12 02:37:37;;;;;;;16.40;12.63;;;;;;;5.07;100.00;98126.20;637515;225;24868;-75
2020/12/12 02:40:05;;;;;;;17.77;12.90;;;;;;;5.01;100.00;98128.92;648886;221;24816;-75
2020/12/12 02:42:32;;;;;;;17.10;12.80;;;;;;;5.01;100.00;98134.56;637046;225;24856;-74
2020/12/12 02:45:00;;;;;;;17.55;14.63;;;;;;;5.35;100.00;98132.63;630638;225;32818;-75
2020/12/12 02:47:34;;;;;;;16.97;13.23;;;;;;;4.97;100.00;98135.86;635774;225;23782;-74
2020/12/12 02:50:04;;;;;;;19.90;13.20;;;;;;;4.96;100.00;98136.83;644148;221;24890;-75
2020/12/12 02:52:30;;;;;;;17.00;13.03;;;;;;;5.02;100.00;98133.59;635851;225;24847;-75
2020/12/12 02:54:58;;;;;;;14.60;11.87;;;;;;;4.87;100.00;98137.78;648608;221;24797;-75
2020/12/12 02:57:26;;;;;;;16.53;13.10;;;;;;;5.08;100.00;98128.30;643603;219;24821;-74
2020/12/12 02:59:53;;;;;;;17.43;12.53;;;;;;;4.92;100.00;98123.92;645112;219;24817;-73
2020/12/12 03:02:21;;;;;;;19.20;12.77;;;;;;;5.21;100.00;98128.13;641320;221;24807;-75
2020/12/12 03:04:49;;;;;;;15.60;11.73;;;;;;;5.05;100.00;98127.63;643116;221;25218;-75
2020/12/12 03:07:18;;;;;;;16.70;14.70;;;;;;;5.34;100.00;98121.96;643258;220;33079;-72
2020/12/12 03:09:45;;;;;;;19.10;14.43;;;;;;;5.30;100.00;98128.91;646319;220;24816;-75
2020/12/12 03:12:13;;;;;;;16.57;13.47;;;;;;;5.15;100.00;98138.27;643383;221;25974;-75
2020/12/12 03:14:41;;;;;;;16.00;12.63;;;;;;;4.93;100.00;98135.87;645972;221;24837;-74
2020/12/12 03:17:09;;;;;;;15.57;11.50;;;;;;;5.01;100.00;98134.08;648796;220;24791;-75
2020/12/12 03:19:37;;;;;;;17.90;12.13;;;;;;;5.15;100.00;98134.39;642267;221;24806;-75
2020/12/12 03:22:05;;;;;;;16.00;12.13;;;;;;;5.19;100.00;98133.91;645875;222;24812;-74
2020/12/12 03:24:33;;;;;;;17.97;12.50;;;;;;;5.25;100.00;98133.27;644102;222;24808;-74
2020/12/12 03:27:01;;;;;;;16.93;12.23;;;;;;;5.16;100.00;98136.81;643114;221;24828;-75
2020/12/12 03:29:29;;;;;;;14.60;11.63;;;;;;;5.13;100.00;98142.78;645215;222;24808;-75
2020/12/12 03:31:57;;;;;;;15.13;11.83;;;;;;;5.23;100.00;98135.20;642353;221;24821;-74
2020/12/12 03:34:25;;;;;;;14.73;11.87;;;;;;;5.32;100.00;98139.37;638542;221;24826;-74
2020/12/12 03:36:53;;;;;;;17.23;12.80;;;;;;;5.40;100.00;98140.34;645224;222;24818;-74
2020/12/12 03:39:21;;;;;;;15.00;11.53;;;;;;;5.30;100.00;98140.02;644432;221;24813;-74
2020/12/12 03:41:48;;;;;;;13.63;10.97;;;;;;;5.24;100.00;98139.39;648111;221;24798;-75
2020/12/12 03:44:16;;;;;;;17.93;11.63;;;;;;;5.33;100.00;98148.70;639591;222;24808;-75
2020/12/12 03:46:44;;;;;;;19.27;12.70;;;;;;;5.28;100.00;98152.75;644905;221;24818;-73
2020/12/12 03:49:12;;;;;;;16.53;12.70;;;;;;;5.32;100.00;98154.83;643378;221;24802;-75
2020/12/12 03:51:40;;;;;;;15.70;11.97;;;;;;;5.42;100.00;98145.64;645778;221;24806;-75
2020/12/12 03:54:08;;;;;;;15.77;12.50;;;;;;;5.36;100.00;98153.56;644416;221;25083;-74
2020/12/12 03:56:35;;;;;;;16.80;11.73;;;;;;;5.29;100.00;98161.61;645396;221;24819;-75
2020/12/12 03:59:03;;;;;;;18.50;12.13;;;;;;;5.36;100.00;98160.00;640177;221;26958;-74
2020/12/12 04:01:32;;;;;;;15.90;11.70;;;;;;;5.34;100.00;98161.11;644854;221;24821;-73
2020/12/12 04:04:00;;;;;;;14.83;11.67;;;;;;;5.14;100.00;98155.49;645020;221;24857;-73
2020/12/12 04:06:27;;;;;;;15.50;12.07;;;;;;;5.19;100.00;98157.09;643024;222;24838;-73
2020/12/12 04:08:55;;;;;;;16.37;10.73;;;;;;;5.05;100.00;98162.41;646770;221;24804;-73
2020/12/12 04:11:23;;;;;;;15.07;11.80;;;;;;;5.25;100.00;98165.97;642735;221;25861;-74
2020/12/12 04:13:51;;;;;;;17.40;13.10;;;;;;;5.70;100.00;98162.03;638941;220;33025;-74
2020/12/12 04:16:19;;;;;;;19.60;12.97;;;;;;;5.21;100.00;98168.06;638925;220;28041;-74
2020/12/12 04:18:47;;;;;;;14.63;11.50;;;;;;;5.26;100.00;98170.95;642851;221;24838;-73
2020/12/12 04:21:15;;;;;;;14.50;11.90;;;;;;;5.15;100.00;98165.31;639845;221;28035;-74
2020/12/12 04:23:44;;;;;;;17.33;12.43;;;;;;;5.25;100.00;98171.13;644757;221;24810;-74
2020/12/12 04:26:12;;;;;;;14.47;11.67;;;;;;;5.40;100.00;98175.14;644619;220;24815;-74
2020/12/12 04:28:40;;;;;;;13.30;10.40;;;;;;;5.34;100.00;98174.80;642177;221;24795;-74
2020/12/12 04:31:07;;;;;;;13.77;9.97;;;;;;;5.34;100.00;98174.80;645289;221;24822;-75
2020/12/12 04:33:35;;;;;;;13.50;10.80;;;;;;;5.38;100.00;98178.36;647058;221;24814;-74
2020/12/12 04:36:03;;;;;;;14.80;11.30;;;;;;;5.43;100.00;98169.65;648822;221;24871;-74
2020/12/12 04:38:32;;;;;;;12.23;9.90;;;;;;;5.39;100.00;98169.66;649255;221;24904;-74
2020/12/12 04:40:59;;;;;;;14.27;10.47;;;;;;;5.28;100.00;98172.88;638484;222;24811;-73
2020/12/12 04:43:27;;;;;;;13.70;10.20;;;;;;;5.27;100.00;98174.33;642470;221;24838;-74
2020/12/12 04:45:55;;;;;;;13.60;10.70;;;;;;;5.27;100.00;98176.42;646011;222;24819;-74
2020/12/12 04:48:22;;;;;;;15.60;11.00;;;;;;;5.35;100.00;98178.20;644675;221;26965;-74
2020/12/12 04:50:50;;;;;;;14.70;11.23;;;;;;;5.36;100.00;98179.33;648010;222;24814;-74
2020/12/12 04:53:18;;;;;;;13.23;10.70;;;;;;;5.39;100.00;98178.69;645429;222;24830;-74
2020/12/12 04:55:46;;;;;;;12.20;9.73;;;;;;;5.45;100.00;98187.05;645056;222;24860;-74
2020/12/12 04:58:15;;;;;;;18.20;11.87;;;;;;;5.39;100.00;98177.39;643225;221;24817;-71
2020/12/12 05:00:45;;;;;;;17.40;11.57;;;;;;;5.45;100.00;98180.11;643161;221;24843;-73
2020/12/12 05:03:14;;;;;;;14.77;11.50;;;;;;;5.47;100.00;98178.17;641064;221;24815;-73
2020/12/12 05:05:41;;;;;;;13.67;10.20;;;;;;;5.39;100.00;98181.26;643570;221;24824;-74
2020/12/12 05:08:09;;;;;;;15.93;11.30;;;;;;;5.50;100.00;98180.94;642613;222;24857;-74
2020/12/12 05:10:38;;;;;;;18.00;11.67;;;;;;;5.48;100.00;98180.27;637923;222;24815;-73
2020/12/12 05:13:15;;;;;;;15.13;11.23;;;;;;;5.51;100.00;98186.41;640803;222;24817;-74
2020/12/12 05:15:42;;;;;;;16.10;11.80;;;;;;;5.47;100.00;98181.23;648909;221;25063;-74
2020/12/12 05:18:11;;;;;;;14.37;10.63;;;;;;;5.38;100.00;98180.94;642560;221;25360;-74
2020/12/12 05:20:38;;;;;;;12.60;9.80;;;;;;;5.50;100.00;98179.64;641150;222;24809;-74
2020/12/12 05:23:11;;;;;;;15.77;11.77;;;;;;;5.62;100.00;98180.89;649029;220;24817;-74
2020/12/12 05:25:39;;;;;;;16.97;12.33;;;;;;;5.65;100.00;98183.16;650797;220;24815;-74
2020/12/12 05:28:07;;;;;;;17.20;11.27;;;;;;;5.80;100.00;98180.72;644150;221;28073;-74
2020/12/12 05:30:36;;;;;;;15.70;11.27;;;;;;;5.75;100.00;98181.19;644644;220;25094;-73
2020/12/12 05:33:04;;;;;;;13.83;11.30;;;;;;;5.64;100.00;98184.13;647793;221;24808;-74
2020/12/12 05:35:32;;;;;;;15.20;11.40;;;;;;;5.61;100.00;98183.15;643091;221;24814;-74
2020/12/12 05:38:00;;;;;;;14.80;10.60;;;;;;;5.56;100.00;98190.58;643078;221;24833;-74
2020/12/12 05:40:28;;;;;;;13.20;10.27;;;;;;;5.59;100.00;98185.89;644200;221;24825;-74
2020/12/12 05:42:56;;;;;;;15.10;11.30;;;;;;;5.74;100.00;98182.64;643005;221;24859;-74
2020/12/12 05:45:24;;;;;;;13.57;10.93;;;;;;;5.71;100.00;98181.20;639666;221;24834;-74
2020/12/12 05:47:51;;;;;;;14.43;11.03;;;;;;;5.81;100.00;98183.12;642512;221;24826;-74
2020/12/12 05:50:20;;;;;;;14.90;10.17;;;;;;;5.65;100.00;98181.88;649510;221;24815;-74
2020/12/12 05:52:49;;;;;;;15.30;10.00;;;;;;;5.63;100.00;98188.94;639738;221;24805;-74
2020/12/12 05:55:17;;;;;;;13.47;10.30;;;;;;;5.69;100.00;98195.23;644621;221;27993;-74
2020/12/12 05:57:45;;;;;;;14.37;10.47;;;;;;;5.77;100.00;98188.75;638724;224;24860;-73
2020/12/12 06:00:13;;;;;;;13.83;10.27;;;;;;;5.58;100.00;98187.34;637305;225;24868;-73
2020/12/12 06:02:41;;;;;;;10.70;9.27;;;;;;;5.73;100.00;98195.22;639641;224;24846;-73
2020/12/12 06:05:09;;;;;;;13.63;10.13;;;;;;;5.71;100.00;98196.67;648540;221;24806;-72
2020/12/12 06:07:37;;;;;;;18.10;11.47;;;;;;;5.83;100.00;98198.43;639048;223;26927;-74
2020/12/12 06:10:04;;;;;;;13.13;10.20;;;;;;;5.72;100.00;98204.73;636459;225;24874;-74
2020/12/12 06:12:33;;;;;;;12.10;9.63;;;;;;;5.81;100.00;98197.31;636331;226;24830;-73
2020/12/12 06:15:00;;;;;;;14.63;11.03;;;;;;;5.86;100.00;98201.97;636331;226;24825;-74
2020/12/12 06:17:37;;;;;;;23.33;14.17;;;;;;;5.95;100.00;98204.41;643697;221;25921;-73
2020/12/12 06:20:06;;;;;;;20.30;13.27;;;;;;;5.96;100.00;98205.20;635207;226;24817;-73
2020/12/12 06:22:34;;;;;;;17.37;12.07;;;;;;;5.97;100.00;98206.01;648644;222;24816;-73
2020/12/12 06:25:01;;;;;;;15.20;10.80;;;;;;;6.04;100.00;98211.61;636196;226;24874;-73
2020/12/12 06:27:32;;;;;;;15.00;11.17;;;;;;;5.92;100.00;98217.64;637609;224;24822;-72
2020/12/12 06:30:01;;;;;;;16.37;11.20;;;;;;;5.96;100.00;98218.11;636539;225;24820;-73
2020/12/12 06:32:29;;;;;;;22.87;16.17;;;;;;;6.03;100.00;98218.23;638786;224;24901;-74
2020/12/12 06:34:57;;;;;;;28.13;22.10;;;;;;;5.99;100.00;98225.51;637988;223;24830;-73
2020/12/12 06:37:27;;;;;;;31.60;21.30;;;;;;;5.99;100.00;98224.70;640911;224;24812;-71
2020/12/12 06:39:55;;;;;;;20.50;15.77;;;;;;;5.98;100.00;98231.64;649885;221;28010;-73
2020/12/12 06:42:38;;;;;;;14.90;11.43;;;;;;;5.85;100.00;98236.47;637534;224;24847;-72
2020/12/12 06:45:26;;;;;;;14.93;10.63;;;;;;;5.92;100.00;98233.60;637211;225;25185;-73
2020/12/12 06:47:54;;;;;;;14.87;10.67;;;;;;;6.05;100.00;98236.45;648071;221;24759;-73
2020/12/12 06:50:21;;;;;;;16.03;11.27;;;;;;;5.85;100.00;98245.50;637998;224;24828;-74
2020/12/12 06:52:49;;;;;;;17.00;12.10;;;;;;;5.85;100.00;98255.81;648977;220;27990;-73
2020/12/12 06:55:17;;;;;;;17.47;11.57;;;;;;;5.92;100.00;98254.23;644793;221;24768;-73
2020/12/12 06:57:46;;;;;;;21.17;12.93;;;;;;;5.95;100.00;98256.00;636809;225;24895;-74
2020/12/12 07:00:19;;;;;;;15.40;10.20;;;;;;;5.90;100.00;98259.53;637431;223;24915;-73
2020/12/12 07:02:54;;;;;;;18.07;13.20;;;;;;;6.44;100.00;98260.21;630757;225;32999;-73
2020/12/12 07:05:22;;;;;;;19.80;12.63;;;;;;;6.09;100.00;98262.75;649530;221;23651;-74
2020/12/12 07:07:50;;;;;;;15.30;11.33;;;;;;;6.12;100.00;98274.02;637495;225;24818;-72
2020/12/12 07:10:19;;;;;;;14.43;10.60;;;;;;;6.03;100.00;98268.55;650416;221;24784;-74
2020/12/12 07:12:47;;;;;;;16.00;11.57;;;;;;;6.14;100.00;98272.08;649721;221;24783;-73
2020/12/12 07:15:15;;;;;;;21.50;14.17;;;;;;;6.22;100.00;98274.66;636843;225;24846;-73
2020/12/12 07:17:44;;;;;;;16.80;12.17;;;;;;;6.07;100.00;98280.17;644282;221;25004;-74
2020/12/12 07:20:12;;;;;;;15.70;13.30;;;;;;;6.50;100.00;98276.34;631025;225;32852;-74
2020/12/12 07:22:40;;;;;;;17.83;12.53;;;;;;;6.17;100.00;98282.06;637233;225;23690;-74
2020/12/12 07:25:08;;;;;;;14.90;10.97;;;;;;;6.06;100.00;98288.89;647384;219;24765;-73
2020/12/12 07:27:36;;;;;;;14.67;10.47;;;;;;;5.97;100.00;98285.50;647977;219;25050;-74
2020/12/12 07:30:04;;;;;;;15.80;11.17;;;;;;;6.05;100.00;98296.28;650577;220;26941;-74
2020/12/12 07:32:33;;;;;;;12.77;10.23;;;;;;;5.94;100.00;98302.13;637147;225;24809;-73
2020/12/12 07:35:01;;;;;;;14.93;10.13;;;;;;;6.04;100.00;98307.57;637595;224;24815;-74
2020/12/12 07:37:31;;;;;;;16.57;11.50;;;;;;;6.30;100.00;98308.17;649749;220;24758;-74
2020/12/12 07:39:57;;;;;;;15.90;11.83;;;;;;;6.20;100.00;98304.50;636264;225;24807;-74
2020/12/12 07:42:25;;;;;;;18.40;11.97;;;;;;;6.15;100.00;98311.11;639306;222;24809;-74
2020/12/12 07:45:02;;;;;;;21.50;14.03;;;;;;;6.41;100.00;98305.25;645364;220;24888;-74
2020/12/12 07:47:25;;;;;;;22.50;14.60;;;;;;;6.44;100.00;98310.07;646551;220;24763;-74
2020/12/12 07:49:53;;;;;;;17.67;12.30;;;;;;;6.24;100.00;98314.01;645229;220;27984;-74
2020/12/12 07:52:21;;;;;;;18.60;12.90;;;;;;;6.24;100.00;98317.88;644611;220;24826;-74
2020/12/12 07:54:54;;;;;;;21.53;14.97;;;;;;;6.62;100.00;98325.86;639043;221;33082;-73
2020/12/12 07:57:17;;;;;;;22.93;15.80;;;;;;;6.33;100.00;98325.10;644803;220;24799;-73
2020/12/12 07:59:45;;;;;;;15.00;11.90;;;;;;;6.23;100.00;98333.85;633919;226;24909;-74
2020/12/12 08:02:13;;;;;;;14.30;11.00;;;;;;;6.12;100.00;98334.19;630401;225;24824;-74
2020/12/12 08:04:41;;;;;;;16.30;11.30;;;;;;;6.34;100.00;98331.91;648477;219;24780;-73
2020/12/12 08:07:11;;;;;;;14.53;10.90;;;;;;;6.21;100.00;98340.95;635729;225;24973;-74
2020/12/12 08:09:38;;;;;;;14.47;11.47;;;;;;;6.31;100.00;98345.12;648403;221;24773;-69
2020/12/12 08:12:06;;;;;;;17.93;11.60;;;;;;;6.24;100.00;98343.20;649047;220;24784;-74
2020/12/12 08:14:43;;;;;;;21.93;14.40;;;;;;;6.23;100.00;98357.08;636168;226;24895;-74
2020/12/12 08:17:11;;;;;;;19.80;13.90;;;;;;;6.40;100.00;98359.14;649935;221;25957;-73
2020/12/12 08:19:48;;;;;;;20.17;13.70;;;;;;;6.54;100.00;98362.83;636515;225;24889;-73
2020/12/12 08:22:17;;;;;;;21.00;15.23;;;;;;;6.45;100.00;98363.33;632086;225;24994;-73
2020/12/12 08:24:45;;;;;;;19.90;14.10;;;;;;;6.45;100.00;98365.91;648508;221;24788;-71
2020/12/12 08:27:14;;;;;;;18.03;12.50;;;;;;;6.55;100.00;98366.53;647466;221;24864;-74
2020/12/12 08:29:43;;;;;;;21.63;13.10;;;;;;;6.57;100.00;98370.73;648441;222;24782;-74
2020/12/12 08:32:28;;;;;;;17.40;12.73;;;;;;;6.62;100.00;98368.48;635987;225;28041;-74
2020/12/12 08:35:08;;;;;;;18.23;12.53;;;;;;;6.72;100.00;98372.95;636099;225;24812;-73
2020/12/12 08:37:36;;;;;;;15.77;12.30;;;;;;;6.74;100.00;98378.27;644066;222;24835;-73
2020/12/12 08:40:07;;;;;;;19.43;12.23;;;;;;;6.72;100.00;98375.53;644854;221;24943;-73
2020/12/12 08:42:34;;;;;;;22.13;14.70;;;;;;;6.83;100.00;98388.90;641736;221;24851;-72
2020/12/12 08:45:20;;;;;;;22.03;13.80;;;;;;;6.92;100.00;98385.81;643870;221;24802;-73
2020/12/12 08:47:48;;;;;;;26.93;15.53;;;;;;;7.03;100.00;98386.72;641563;222;26973;-72
2020/12/12 08:50:16;;;;;;;21.33;14.10;;;;;;;6.89;100.00;98391.30;641900;221;24859;-72
2020/12/12 08:52:44;;;;;;;24.67;14.57;;;;;;;6.95;100.00;98390.64;642368;222;24822;-73
2020/12/12 08:55:13;;;;;;;19.13;13.80;;;;;;;6.96;100.00;98395.33;641931;221;24812;-73
2020/12/12 08:57:40;;;;;;;20.53;14.20;;;;;;;6.90;100.00;98401.98;642957;221;24851;-73
2020/12/12 09:00:07;;;;;;;17.90;12.87;;;;;;;6.80;100.00;98398.77;649884;221;24827;-73
2020/12/12 09:02:35;;;;;;;17.07;12.63;;;;;;;6.74;100.00;98404.58;642800;221;25984;-73
2020/12/12 09:05:08;;;;;;;16.77;12.47;;;;;;;6.99;100.00;98407.91;643248;221;24835;-73
2020/12/12 09:07:36;;;;;;;21.53;13.37;;;;;;;6.81;100.00;98415.87;646110;220;24842;-74
2020/12/12 09:10:09;;;;;;;17.40;12.70;;;;;;;6.96;100.00;98410.83;646405;220;28000;-73
2020/12/12 09:12:44;;;;;;;19.27;14.07;;;;;;;7.22;100.00;98413.97;646533;220;24877;-74
2020/12/12 09:15:12;;;;;;;24.97;14.90;;;;;;;7.17;100.00;98412.84;639411;221;24803;-74
2020/12/12 09:17:40;;;;;;;19.40;12.77;;;;;;;7.19;100.00;98418.67;644408;221;24831;-74
2020/12/12 09:20:08;;;;;;;19.50;13.53;;;;;;;7.02;100.00;98429.05;642448;221;24823;-73
2020/12/12 09:22:36;;;;;;;19.67;13.40;;;;;;;7.03;100.00;98430.66;645316;222;24814;-74
2020/12/12 09:25:03;;;;;;;18.00;13.47;;;;;;;6.98;100.00;98436.82;639848;222;24831;-74
2020/12/12 09:27:31;;;;;;;15.97;11.60;;;;;;;7.14;100.00;98442.42;644914;222;24815;-74
2020/12/12 09:29:59;;;;;;;18.17;12.97;;;;;;;7.16;100.00;98446.94;642914;220;24969;-73
2020/12/12 09:32:27;;;;;;;15.57;12.27;;;;;;;7.10;100.00;98447.13;641510;221;24826;-73
2020/12/12 09:34:55;;;;;;;18.67;12.50;;;;;;;7.29;100.00;98442.53;642130;221;24846;-73
2020/12/12 09:37:23;;;;;;;16.73;12.70;;;;;;;7.27;100.00;98448.36;640147;224;28036;-73
2020/12/12 09:39:51;;;;;;;17.47;11.27;;;;;;;7.14;100.00;98452.27;645951;221;24801;-73
2020/12/12 09:42:19;;;;;;;15.97;12.13;;;;;;;7.27;100.00;98453.04;647426;221;31197;-74
2020/12/12 09:44:47;;;;;;;18.23;12.33;;;;;;;7.42;100.00;98451.84;646755;221;24797;-76
2020/12/12 09:47:14;;;;;;;16.57;12.30;;;;;;;7.59;100.00;98455.96;645371;221;24783;-74
2020/12/12 09:49:42;;;;;;;14.90;11.00;;;;;;;7.47;100.00;98458.63;635338;226;24844;-74
2020/12/12 09:52:10;;;;;;;14.80;10.70;;;;;;;7.57;100.00;98460.50;647073;221;28049;-73
2020/12/12 09:54:38;;;;;;;18.63;13.23;;;;;;;7.71;100.00;98468.03;641294;222;25114;-73
2020/12/12 09:57:06;;;;;;;14.80;11.47;;;;;;;7.65;100.00;98466.95;639044;221;24840;-73
2020/12/12 09:59:34;;;;;;;17.17;12.10;;;;;;;7.52;100.00;98471.86;644924;221;24907;-72
2020/12/12 10:02:02;;;;;;;15.80;11.73;;;;;;;7.59;100.00;98475.36;640601;221;23833;-74
2020/12/12 10:04:29;;;;;;;16.13;11.77;;;;;;;7.65;100.00;98481.17;643523;222;24882;-74
2020/12/12 10:06:57;;;;;;;15.70;11.33;;;;;;;7.68;100.00;98486.48;642799;221;25047;-73
2020/12/12 10:09:25;;;;;;;14.37;10.67;;;;;;;7.64;100.00;98482.16;642497;220;24840;-74
2020/12/12 10:11:53;;;;;;;14.17;10.90;;;;;;;7.78;100.00;98485.80;646632;221;24830;-73
2020/12/12 10:14:21;;;;;;;16.80;12.03;;;;;;;7.56;100.00;98488.64;632592;225;24843;-72
2020/12/12 10:16:49;;;;;;;13.47;10.50;;;;;;;7.78;100.00;98485.00;635785;225;29174;-74
2020/12/12 10:19:17;;;;;;;17.93;13.77;;;;;;;8.17;100.00;98487.02;630298;225;32801;-73
2020/12/12 10:21:44;;;;;;;16.60;12.70;;;;;;;7.80;100.00;98484.33;635635;224;25093;-73
2020/12/12 10:24:12;;;;;;;16.70;12.13;;;;;;;7.45;100.00;98492.88;641931;221;24819;-73
2020/12/12 10:26:40;;;;;;;19.27;11.87;;;;;;;7.48;100.00;98489.98;640197;222;24840;-73
2020/12/12 10:29:08;;;;;;;12.70;9.70;;;;;;;7.49;100.00;98490.79;645122;219;24835;-73
2020/12/12 10:31:36;;;;;;;11.00;9.50;;;;;;;7.48;100.00;98484.81;644677;221;26017;-73
2020/12/12 10:34:04;;;;;;;12.33;8.93;;;;;;;7.59;100.00;98491.37;643191;221;24837;-73
2020/12/12 10:36:32;;;;;;;14.90;11.10;;;;;;;7.59;100.00;98486.20;636848;221;36877;-74
2020/12/12 10:39:00;;;;;;;16.17;11.75;;;;;;;7.99;100.00;98491.16;640357;222;32842;-74
2020/12/12 10:41:31;;;;;;;13.80;11.37;;;;;;;7.78;100.00;98487.09;640638;221;25068;-74
2020/12/12 10:43:59;;;;;;;13.07;8.70;;;;;;;7.63;100.00;98490.89;646570;221;24870;-73
2020/12/12 10:46:26;;;;;;;11.00;8.43;;;;;;;7.67;100.00;98494.74;643210;221;24838;-74
2020/12/12 10:48:54;;;;;;;7.73;6.93;;;;;;;7.53;100.00;98495.94;643236;222;24847;-71
2020/12/12 10:51:22;;;;;;;10.23;7.07;;;;;;;7.59;100.00;98497.84;647228;221;24814;-71
2020/12/12 10:53:51;;;;;;;10.03;7.70;;;;;;;7.63;100.00;98502.53;648368;221;24762;-70
2020/12/12 10:56:18;;;;;;;8.20;6.20;;;;;;;7.65;100.00;98499.28;637424;224;24819;-70
2020/12/12 10:58:46;;;;;;;8.67;7.33;;;;;;;7.83;100.00;98502.10;636095;225;24835;-71
2020/12/12 11:01:14;;;;;;;7.23;5.77;;;;;;;8.08;100.00;98503.58;636428;226;24840;-71
2020/12/12 11:03:42;;;;;;;10.00;6.07;;;;;;;7.89;100.00;98506.62;636241;224;24842;-71
2020/12/12 11:06:11;;;;;;;7.37;5.90;;;;;;;8.12;100.00;98506.63;648988;221;24807;-73
2020/12/12 11:08:39;;;;;;;8.73;6.40;;;;;;;8.33;100.00;98510.22;636436;226;27993;-73
2020/12/12 11:11:07;;;;;;;8.03;6.57;;;;;;;8.51;100.00;98508.65;648847;222;24770;-73
2020/12/12 11:13:35;;;;;;;29.33;20.90;;;;;;;8.55;100.00;98509.09;635093;224;24823;-73
2020/12/12 11:16:03;;;;;;;87.40;55.30;;;;;;;8.57;100.00;98509.73;634518;226;26975;-73
2020/12/12 11:18:31;;;;;;;35.97;26.40;;;;;;;8.56;100.00;98509.41;640704;221;24815;-74
2020/12/12 11:20:59;;;;;;;149.50;86.47;;;;;;;8.31;100.00;98518.66;646238;218;24896;-74
2020/12/12 11:23:28;;;;;;;127.67;78.83;;;;;;;8.92;100.00;98508.30;643591;221;32800;-74
2020/12/12 11:25:55;;;;;;;144.80;94.90;;;;;;;8.41;100.00;98510.66;643739;220;24817;-74